createdAt,value
2022-12-14T00:00:46.722Z,99425.31
2022-12-14T00:03:14.475Z,99520.56
2022-12-14T00:05:42.175Z,99497.38
2022-12-14T00:08:09.930Z,99500.09
2022-12-14T00:10:38.346Z,99443.66
2022-12-14T00:13:07.453Z,99380.75
2022-12-14T00:15:35.127Z,99528.59
2022-12-14T00:18:02.798Z,99497.97
2022-12-14T00:20:30.313Z,99491.84
2022-12-14T00:22:58.086Z,99476.59
2022-12-14T00:25:25.660Z,99488.38
2022-12-14T00:27:53.179Z,99387.78
2022-12-14T00:30:22.042Z,99400.56
2022-12-14T00:32:49.610Z,99479.09
2022-12-14T00:35:18.024Z,99449.19
2022-12-14T00:37:45.630Z,99449.03
2022-12-14T00:40:16.556Z,99451.44
2022-12-14T00:42:44.012Z,99470.09
2022-12-14T00:45:11.862Z,99358.66
2022-12-14T00:47:41.037Z,99368.44
2022-12-14T00:50:09.788Z,99462.19
2022-12-14T00:52:37.388Z,99452.72
2022-12-14T00:55:05.546Z,99453.38
2022-12-14T00:57:33.002Z,99449.03
2022-12-14T01:00:00.484Z,99455.13
2022-12-14T01:02:28.069Z,99262.50
2022-12-14T01:04:56.961Z,99451.69
2022-12-14T01:07:24.455Z,99449.19
2022-12-14T01:09:52.077Z,99452.59
2022-12-14T01:12:19.571Z,99317.19
2022-12-14T01:14:47.155Z,99179.16
2022-12-14T01:17:14.712Z,99173.97
2022-12-14T01:19:42.182Z,99448.97
2022-12-14T01:22:11.158Z,99417.25
2022-12-14T01:24:38.875Z,99441.97
2022-12-14T01:27:06.350Z,99277.59
2022-12-14T01:29:33.913Z,99361.75
2022-12-14T01:32:01.402Z,99429.75
2022-12-14T01:34:28.891Z,99424.50
2022-12-14T01:36:56.368Z,99214.31
2022-12-14T01:39:25.186Z,99420.09
2022-12-14T01:41:52.991Z,99425.34
2022-12-14T01:44:55.698Z,99416.53
2022-12-14T01:47:27.198Z,99353.41
2022-12-14T01:49:56.750Z,99418.38
2022-12-14T01:52:25.694Z,99283.81
2022-12-14T01:54:56.035Z,99361.22
2022-12-14T01:57:25.077Z,99419.31
2022-12-14T01:59:52.789Z,99259.75
2022-12-14T02:02:20.345Z,99235.66
2022-12-14T02:04:50.483Z,99235.94
2022-12-14T02:07:17.927Z,99400.09
2022-12-14T02:09:46.153Z,99399.19
2022-12-14T02:12:15.710Z,99324.84
2022-12-14T02:14:43.162Z,99397.31
2022-12-14T02:17:11.110Z,99386.88
2022-12-14T02:19:38.581Z,99299.94
2022-12-14T02:22:25.940Z,99388.66
2022-12-14T02:25:06.466Z,99259.44
2022-12-14T02:27:43.963Z,99293.75
2022-12-14T02:30:13.678Z,99311.63
2022-12-14T02:32:54.743Z,99344.34
2022-12-14T02:35:27.858Z,99365.00
2022-12-14T02:38:02.234Z,99302.69
2022-12-14T02:40:31.576Z,99325.38
2022-12-14T02:43:04.223Z,99304.66
2022-12-14T02:45:36.663Z,99336.06
2022-12-14T02:48:06.923Z,99246.78
2022-12-14T02:50:36.033Z,99360.69
2022-12-14T02:53:05.246Z,99264.59
2022-12-14T02:55:34.916Z,99332.06
2022-12-14T02:58:03.945Z,99358.03
2022-12-14T03:00:32.223Z,99336.16
2022-12-14T03:03:01.149Z,99331.72
2022-12-14T03:05:28.668Z,99330.00
2022-12-14T03:07:56.644Z,99344.88
2022-12-14T03:10:30.768Z,99226.16
2022-12-14T03:12:59.025Z,99224.91
2022-12-14T03:15:26.963Z,99177.84
2022-12-14T03:17:56.518Z,99320.63
2022-12-14T03:20:26.285Z,99318.81
2022-12-14T03:22:55.941Z,99295.75
2022-12-14T03:25:26.054Z,99268.53
2022-12-14T03:27:56.345Z,99093.91
2022-12-14T03:30:57.750Z,99306.59
2022-12-14T03:33:12.586Z,99196.78
2022-12-14T03:35:44.457Z,99296.06
2022-12-14T03:38:14.414Z,99302.28
2022-12-14T03:40:46.650Z,99193.22
2022-12-14T03:43:16.316Z,99029.41
2022-12-14T03:45:46.010Z,99120.88
2022-12-14T03:48:16.186Z,99293.44
2022-12-14T03:50:45.461Z,99294.47
2022-12-14T03:53:13.867Z,99164.03
2022-12-14T03:55:43.814Z,99167.31
2022-12-14T03:58:27.634Z,99223.53
2022-12-14T04:00:57.665Z,99273.50
2022-12-14T04:03:29.070Z,99279.66
2022-12-14T04:06:00.096Z,99259.94
2022-12-14T04:08:30.876Z,99209.63
2022-12-14T04:11:16.298Z,99173.75
2022-12-14T04:14:04.795Z,99258.50
2022-12-14T04:16:53.112Z,99269.13
2022-12-14T04:19:22.121Z,99266.50
2022-12-14T04:21:52.702Z,99256.00
2022-12-14T04:24:40.333Z,99235.66
2022-12-14T04:27:10.319Z,99234.97
2022-12-14T04:29:55.706Z,99250.13
2022-12-14T04:32:24.938Z,99222.91
2022-12-14T04:34:54.822Z,99244.09
2022-12-14T04:37:23.840Z,99252.75
2022-12-14T04:39:53.148Z,99247.41
2022-12-14T04:42:22.122Z,99236.91
2022-12-14T04:44:50.550Z,99198.78
2022-12-14T04:47:18.155Z,99237.81
2022-12-14T04:49:49.156Z,99236.97
2022-12-14T04:52:18.225Z,99242.25
2022-12-14T04:54:49.215Z,99231.78
2022-12-14T04:57:19.413Z,99164.47
2022-12-14T04:59:47.070Z,99230.06
2022-12-14T05:02:19.703Z,99223.03
2022-12-14T05:04:55.075Z,99209.97
2022-12-14T05:07:29.302Z,99211.66
2022-12-14T05:09:59.677Z,99212.53
2022-12-14T05:12:29.303Z,99193.88
2022-12-14T05:15:00.628Z,99201.06
2022-12-14T05:17:28.228Z,99199.22
2022-12-14T05:19:55.698Z,99188.69
2022-12-14T05:22:23.163Z,99191.31
2022-12-14T05:24:50.608Z,99178.34
2022-12-14T05:27:19.405Z,99188.69
2022-12-14T05:29:46.866Z,99181.03
2022-12-14T05:32:14.343Z,99187.75
2022-12-14T05:34:41.852Z,99189.47
2022-12-14T05:37:14.559Z,99185.03
2022-12-14T05:39:45.347Z,99182.41
2022-12-14T05:42:12.818Z,99170.91
2022-12-14T05:44:41.594Z,99165.63
2022-12-14T05:47:09.098Z,99163.75
2022-12-14T05:49:36.556Z,99163.66
2022-12-14T05:52:04.217Z,99158.50
2022-12-14T05:54:31.711Z,99151.38
2022-12-14T05:56:59.511Z,99061.41
2022-12-14T05:59:26.987Z,99143.41
2022-12-14T06:01:56.011Z,99141.72
2022-12-14T06:04:23.875Z,99137.28
2022-12-14T06:06:51.610Z,99140.56
2022-12-14T06:09:19.392Z,99142.25
2022-12-14T06:11:47.111Z,99140.06
2022-12-14T06:14:14.699Z,99109.69
2022-12-14T06:16:42.453Z,99131.03
2022-12-14T06:19:11.791Z,99131.72
2022-12-14T06:21:40.284Z,99104.50
2022-12-14T06:24:08.443Z,99134.28
2022-12-14T06:26:37.668Z,99105.03
2022-12-14T06:29:05.096Z,99131.56
2022-12-14T06:31:33.002Z,99108.41
2022-12-14T06:34:01.834Z,99096.53
2022-12-14T06:36:31.619Z,99120.03
2022-12-14T06:39:01.225Z,99089.34
2022-12-14T06:41:28.716Z,99104.50
2022-12-14T06:43:56.990Z,99106.88
2022-12-14T06:46:25.635Z,99114.84
2022-12-14T06:48:53.546Z,99096.91
2022-12-14T06:51:21.296Z,99106.88
2022-12-14T06:53:52.518Z,99063.28
2022-12-14T06:56:20.690Z,99093.47
2022-12-14T06:58:48.358Z,99098.63
2022-12-14T07:01:16.905Z,99081.72
2022-12-14T07:03:44.814Z,99042.75
2022-12-14T07:06:12.320Z,99097.47
2022-12-14T07:08:39.840Z,99062.84
2022-12-14T07:11:10.265Z,99085.81
2022-12-14T07:13:37.731Z,99099.50
2022-12-14T07:16:05.985Z,99030.16
2022-12-14T07:18:33.647Z,99092.63
2022-12-14T07:21:01.966Z,99075.13
2022-12-14T07:23:30.844Z,99080.63
2022-12-14T07:26:01.892Z,99068.13
2022-12-14T07:28:30.670Z,99086.78
2022-12-14T07:30:58.467Z,99078.00
2022-12-14T07:33:26.452Z,99082.97
2022-12-14T07:35:54.419Z,99079.19
2022-12-14T07:38:21.864Z,99075.97
2022-12-14T07:40:49.327Z,99085.09
2022-12-14T07:43:18.705Z,99078.09
2022-12-14T07:45:47.481Z,99079.91
2022-12-14T07:48:14.953Z,99084.41
2022-12-14T07:50:42.436Z,99075.56
2022-12-14T07:53:09.868Z,99073.88
2022-12-14T07:55:37.328Z,99074.75
2022-12-14T07:58:04.771Z,99064.84
2022-12-14T08:00:32.236Z,99072.09
2022-12-14T08:03:01.121Z,99069.47
2022-12-14T08:05:28.559Z,99072.00
2022-12-14T08:07:56.016Z,99071.84
2022-12-14T08:10:23.469Z,99069.09
2022-12-14T08:12:50.992Z,99068.94
2022-12-14T08:15:18.448Z,99060.06
2022-12-14T08:17:45.876Z,99059.97
2022-12-14T08:20:14.815Z,99065.06
2022-12-14T08:22:42.260Z,99059.78
2022-12-14T08:25:10.321Z,99047.47
2022-12-14T08:27:37.779Z,99050.13
2022-12-14T08:30:06.253Z,99050.22
2022-12-14T08:32:34.571Z,99059.03
2022-12-14T08:35:02.200Z,99053.03
2022-12-14T08:37:30.993Z,99053.03
2022-12-14T08:39:58.475Z,99056.97
2022-12-14T08:42:26.043Z,99056.66
2022-12-14T08:44:53.512Z,99070.16
2022-12-14T08:47:20.972Z,99067.78
2022-12-14T08:49:48.458Z,99060.16
2022-12-14T08:52:16.282Z,99063.75
2022-12-14T08:54:45.077Z,99063.34
2022-12-14T08:57:12.553Z,99061.19
2022-12-14T09:00:00.924Z,99068.53
2022-12-14T09:02:27.569Z,99065.78
2022-12-14T09:04:55.561Z,99066.06
2022-12-14T09:07:23.045Z,99067.09
2022-12-14T09:09:51.849Z,99062.09
2022-12-14T09:12:19.310Z,99066.78
2022-12-14T09:14:46.748Z,99073.84
2022-12-14T09:17:17.353Z,99074.78
2022-12-14T09:19:44.806Z,99054.63
2022-12-14T09:22:13.250Z,99070.38
2022-12-14T09:24:40.735Z,99078.84
2022-12-14T09:27:09.721Z,99076.97
2022-12-14T09:29:37.186Z,99075.09
2022-12-14T09:32:05.201Z,99076.97
2022-12-14T09:34:32.703Z,99075.28
2022-12-14T09:37:04.425Z,99067.47
2022-12-14T09:39:32.050Z,99057.84
2022-12-14T09:42:04.544Z,99031.00
2022-12-14T09:44:39.722Z,99058.78
2022-12-14T09:47:09.526Z,99064.91
2022-12-14T09:49:41.038Z,99056.06
2022-12-14T09:52:11.407Z,99057.66
2022-12-14T09:54:39.376Z,99049.00
2022-12-14T09:57:09.958Z,98998.06
2022-12-14T09:59:38.717Z,99060.59
2022-12-14T10:02:33.038Z,99039.28
2022-12-14T10:05:07.414Z,99006.31
2022-12-14T10:07:37.209Z,99054.94
2022-12-14T10:10:05.745Z,99054.56
2022-12-14T10:12:46.485Z,99061.19
2022-12-14T10:15:21.998Z,99038.84
2022-12-14T10:18:05.332Z,99058.09
2022-12-14T10:20:36.186Z,99040.84
2022-12-14T10:23:03.763Z,99007.75
2022-12-14T10:25:32.161Z,99053.66
2022-12-14T10:28:11.828Z,99050.06
2022-12-14T10:30:41.784Z,99018.59
2022-12-14T10:33:13.571Z,99050.06
2022-12-14T10:35:44.411Z,99049.25
2022-12-14T10:38:15.886Z,99038.38
2022-12-14T10:40:46.956Z,99049.72
2022-12-14T10:43:26.804Z,99015.88
2022-12-14T10:45:59.649Z,99046.47
2022-12-14T10:48:33.797Z,99003.91
2022-12-14T10:51:02.945Z,99038.75
2022-12-14T10:53:38.716Z,99036.03
2022-12-14T10:56:12.031Z,99031.50
2022-12-14T10:58:39.520Z,99033.97
2022-12-14T11:01:11.927Z,99019.91
2022-12-14T11:03:39.672Z,99025.22
2022-12-14T11:06:11.940Z,99026.53
2022-12-14T11:08:41.006Z,98875.78
2022-12-14T11:11:12.774Z,98993.56
2022-12-14T11:13:49.026Z,99016.88
2022-12-14T11:16:24.852Z,99023.69
2022-12-14T11:18:58.759Z,99012.16
2022-12-14T11:21:36.663Z,99011.00
2022-12-14T11:24:04.437Z,99002.56
2022-12-14T11:26:34.632Z,98990.28
2022-12-14T11:29:02.204Z,98980.03
2022-12-14T11:31:33.841Z,98974.91
2022-12-14T11:34:01.485Z,98991.94
2022-12-14T11:36:32.146Z,98997.00
2022-12-14T11:39:00.557Z,98987.50
2022-12-14T11:41:28.701Z,98987.59
2022-12-14T11:44:04.700Z,98987.50
2022-12-14T11:46:45.163Z,98944.03
2022-12-14T11:49:26.996Z,98977.16
2022-12-14T11:51:58.699Z,98972.91
2022-12-14T11:54:26.264Z,98910.88
2022-12-14T11:56:57.457Z,98962.94
2022-12-14T11:59:24.948Z,98954.91
2022-12-14T12:01:55.679Z,98966.41
2022-12-14T12:04:23.209Z,98960.28
2022-12-14T12:06:50.735Z,98961.16
2022-12-14T12:09:26.088Z,98942.56
2022-12-14T12:11:53.635Z,98962.09
2022-12-14T12:14:26.157Z,98953.22
2022-12-14T12:16:54.993Z,98856.88
2022-12-14T12:19:24.943Z,98877.38
2022-12-14T12:21:52.408Z,98951.16
2022-12-14T12:24:21.598Z,98945.88
2022-12-14T12:26:50.894Z,98950.31
2022-12-14T12:29:22.657Z,98950.09
2022-12-14T12:31:53.123Z,98910.09
2022-12-14T12:34:23.894Z,98914.50
2022-12-14T12:37:24.752Z,98937.56
2022-12-14T12:39:39.599Z,98933.97
2022-12-14T12:42:09.936Z,98930.69
2022-12-14T12:44:42.329Z,98935.56
2022-12-14T12:47:34.389Z,98902.66
2022-12-14T12:50:15.059Z,98917.59
2022-12-14T12:52:49.570Z,98935.25
2022-12-14T12:55:18.016Z,98940.44
2022-12-14T12:57:46.099Z,98891.28
2022-12-14T13:00:17.208Z,98933.94
2022-12-14T13:02:46.417Z,98908.56
2022-12-14T13:08:08.417Z,98928.78
2022-12-14T13:10:42.062Z,98930.22
2022-12-14T13:13:19.381Z,98864.41
2022-12-14T13:15:48.032Z,98926.84
2022-12-14T13:18:41.159Z,98900.81
2022-12-14T13:21:28.567Z,98878.44
2022-12-14T13:23:56.094Z,98880.34
2022-12-14T13:26:57.229Z,98901.72
2022-12-14T13:29:28.761Z,98881.03
2022-12-14T13:31:59.387Z,98920.34
2022-12-14T13:34:32.641Z,98906.63
2022-12-14T13:37:27.390Z,98909.38
2022-12-14T13:40:18.027Z,98916.78
2022-12-14T13:42:51.900Z,98900.41
2022-12-14T13:45:20.497Z,98891.00
2022-12-14T13:47:51.370Z,98922.19
2022-12-14T13:50:37.637Z,98921.22
2022-12-14T13:53:13.378Z,98915.84
2022-12-14T13:55:41.533Z,98916.81
2022-12-14T13:58:19.880Z,98925.59
2022-12-14T14:01:01.325Z,98923.16
2022-12-14T14:03:48.460Z,98925.03
2022-12-14T14:06:23.741Z,98920.19
2022-12-14T14:08:52.700Z,98926.72
2022-12-14T14:11:45.063Z,98921.00
2022-12-14T14:14:17.843Z,98910.19
2022-12-14T14:16:45.567Z,98874.66
2022-12-14T14:19:19.536Z,98879.28
2022-12-14T14:24:58.691Z,98922.19
2022-12-14T14:27:28.437Z,98859.25
2022-12-14T14:29:56.054Z,98866.53
2022-12-14T14:32:38.689Z,98883.66
2022-12-14T14:35:07.855Z,98928.69
2022-12-14T14:37:35.913Z,98932.28
2022-12-14T14:40:23.505Z,98919.41
2022-12-14T14:43:00.031Z,98935.13
2022-12-14T14:45:37.194Z,98856.97
2022-12-14T14:48:10.871Z,98913.22
2022-12-14T14:50:39.269Z,98900.72
2022-12-14T14:53:30.612Z,98927.50
2022-12-14T14:56:17.635Z,98932.03
2022-12-14T14:58:45.097Z,98928.97
2022-12-14T15:01:21.854Z,98885.78
2022-12-14T15:06:13.414Z,98938.50
2022-12-14T15:08:41.305Z,98931.28
2022-12-14T15:11:16.002Z,98944.25
2022-12-14T15:13:47.060Z,98940.13
2022-12-14T15:16:25.974Z,98939.28
2022-12-14T15:18:53.465Z,98934.28
2022-12-14T15:21:20.933Z,98939.66
2022-12-14T15:23:50.031Z,98927.31
2022-12-14T15:26:20.398Z,98938.16
2022-12-14T15:28:49.813Z,98857.25
2022-12-14T15:31:17.424Z,98952.47
2022-12-14T15:33:46.408Z,98955.22
2022-12-14T15:36:15.567Z,98957.94
2022-12-14T15:38:43.016Z,98959.91
2022-12-14T15:41:14.963Z,98960.00
2022-12-14T15:43:45.634Z,98962.75
2022-12-14T15:46:16.444Z,98903.53
2022-12-14T15:48:43.974Z,98970.75
2022-12-14T15:51:12.715Z,98908.09
2022-12-14T15:53:41.572Z,98924.53
2022-12-14T15:56:24.755Z,98978.94
2022-12-14T15:58:53.798Z,98911.47
2022-12-14T16:01:23.795Z,98909.84
2022-12-14T16:03:52.569Z,98914.28
2022-12-14T16:06:20.013Z,98931.31
2022-12-14T16:08:49.342Z,98977.84
2022-12-14T16:11:19.963Z,98978.84
2022-12-14T16:13:47.411Z,98978.94
2022-12-14T16:16:16.455Z,98982.44
2022-12-14T16:18:45.422Z,98954.47
2022-12-14T16:21:26.951Z,98936.88
2022-12-14T16:23:54.520Z,98929.53
2022-12-14T16:26:23.346Z,98985.63
2022-12-14T16:28:50.834Z,98991.00
2022-12-14T16:31:20.406Z,98990.31
2022-12-14T16:33:50.183Z,98963.50
2022-12-14T16:36:25.120Z,99001.91
2022-12-14T16:38:55.880Z,98999.47
2022-12-14T16:41:34.962Z,98997.88
2022-12-14T16:44:02.509Z,98998.88
2022-12-14T16:46:31.696Z,98998.06
2022-12-14T16:49:19.875Z,98996.44
2022-12-14T16:52:14.382Z,98997.66
2022-12-14T16:54:34.914Z,99010.63
2022-12-14T16:57:03.699Z,98998.69
2022-12-14T16:59:40.727Z,99009.22
2022-12-14T17:02:25.479Z,99018.06
2022-12-14T17:04:53.094Z,99011.19
2022-12-14T17:07:21.742Z,98949.38
2022-12-14T17:09:49.306Z,99011.28
2022-12-14T17:12:17.123Z,98973.91
2022-12-14T17:14:49.766Z,99011.38
2022-12-14T17:17:19.165Z,99007.13
2022-12-14T17:19:47.949Z,99017.19
2022-12-14T17:22:18.309Z,98970.72
2022-12-14T17:24:45.790Z,99029.41
2022-12-14T17:27:15.662Z,99034.66
2022-12-14T17:29:43.284Z,99032.97
2022-12-14T17:32:11.158Z,99032.22
2022-12-14T17:34:38.638Z,99035.78
2022-12-14T17:37:12.288Z,99036.75
2022-12-14T17:39:39.776Z,99043.00
2022-12-14T17:42:07.247Z,98987.91
2022-12-14T17:44:34.706Z,99036.16
2022-12-14T17:47:02.148Z,99048.47
2022-12-14T17:49:35.887Z,99045.00
2022-12-14T17:52:04.174Z,99027.38
2022-12-14T17:54:33.006Z,99046.00
2022-12-14T17:57:00.574Z,99043.47
2022-12-14T17:59:28.021Z,99052.41
2022-12-14T18:01:55.509Z,99051.53
2022-12-14T18:04:23.062Z,98927.84
2022-12-14T18:06:50.502Z,99058.69
2022-12-14T18:09:18.460Z,99064.88
2022-12-14T18:12:20.957Z,99067.59
2022-12-14T18:14:34.693Z,99060.66
2022-12-14T18:17:03.449Z,99062.41
2022-12-14T18:19:34.144Z,99060.72
2022-12-14T18:22:01.563Z,99057.31
2022-12-14T18:24:29.770Z,99058.28
2022-12-14T18:26:58.529Z,99061.75
2022-12-14T18:29:26.080Z,99061.00
2022-12-14T18:31:53.796Z,99056.00
2022-12-14T18:34:21.284Z,99066.34
2022-12-14T18:36:49.650Z,99077.06
2022-12-14T18:39:18.152Z,99076.19
2022-12-14T18:41:45.730Z,99072.72
2022-12-14T18:44:14.574Z,99067.63
2022-12-14T18:46:42.074Z,99079.84
2022-12-14T18:49:09.535Z,99073.81
2022-12-14T18:51:36.995Z,99078.25
2022-12-14T18:54:04.588Z,99044.38
2022-12-14T18:56:32.149Z,99084.44
2022-12-14T18:59:00.304Z,99088.94
2022-12-14T19:01:29.246Z,99064.91
2022-12-14T19:03:56.960Z,99082.84
2022-12-14T19:09:13.188Z,99082.13
2022-12-14T19:11:41.623Z,99083.00
2022-12-14T19:14:09.239Z,99083.00
2022-12-14T19:16:38.531Z,99076.88
2022-12-14T19:19:06.088Z,99082.13
2022-12-14T19:21:33.590Z,99080.53
2022-12-14T19:24:01.103Z,99084.13
2022-12-14T19:26:29.120Z,99092.00
2022-12-14T19:28:56.718Z,99093.78
2022-12-14T19:31:24.439Z,99080.22
2022-12-14T19:33:53.954Z,99085.16
2022-12-14T19:36:21.445Z,99087.94
2022-12-14T19:38:49.263Z,99100.09
2022-12-14T19:41:17.649Z,99101.94
2022-12-14T19:43:45.111Z,99098.47
2022-12-14T19:46:13.640Z,98988.59
2022-12-14T19:48:42.409Z,99092.44
2022-12-14T19:51:11.964Z,99096.84
2022-12-14T19:53:39.747Z,99086.06
2022-12-14T19:56:08.188Z,99098.81
2022-12-14T19:58:35.713Z,99096.19
2022-12-14T20:01:03.202Z,99104.00
2022-12-14T20:03:31.243Z,99103.22
2022-12-14T20:05:59.754Z,99052.16
2022-12-14T20:08:29.350Z,99102.69
2022-12-14T20:10:57.056Z,99106.00
2022-12-14T20:13:25.489Z,99112.22
2022-12-14T20:15:53.801Z,99093.56
2022-12-14T20:18:21.356Z,99105.25
2022-12-14T20:20:49.974Z,99110.59
2022-12-14T20:23:17.884Z,99109.75
2022-12-14T20:25:46.694Z,99111.53
2022-12-14T20:28:14.239Z,99121.19
2022-12-14T20:30:43.778Z,99118.63
2022-12-14T20:33:11.231Z,99122.13
2022-12-14T20:35:38.714Z,99110.97
2022-12-14T20:38:06.213Z,99118.63
2022-12-14T20:40:38.379Z,99125.75
2022-12-14T20:43:07.985Z,99115.56
2022-12-14T20:45:38.326Z,99130.25
2022-12-14T20:48:06.436Z,99134.66
2022-12-14T20:50:33.925Z,99143.41
2022-12-14T20:53:01.768Z,99146.97
2022-12-14T20:55:29.262Z,99158.31
2022-12-14T20:57:56.733Z,99155.78
2022-12-14T21:00:25.557Z,99163.66
2022-12-14T21:02:53.330Z,99171.63
2022-12-14T21:05:21.007Z,99171.72
2022-12-14T21:07:48.703Z,99171.81
2022-12-14T21:10:16.268Z,99174.44
2022-12-14T21:12:42.805Z,99171.81
2022-12-14T21:15:10.539Z,99165.72
2022-12-14T21:17:39.315Z,99163.09
2022-12-14T21:20:07.536Z,99172.75
2022-12-14T21:22:35.316Z,99179.78
2022-12-14T21:25:04.786Z,99185.13
2022-12-14T21:27:33.031Z,99192.34
2022-12-14T21:30:00.985Z,99199.38
2022-12-14T21:32:28.566Z,99201.06
2022-12-14T21:34:57.378Z,99202.00
2022-12-14T21:37:24.828Z,99194.13
2022-12-14T21:39:54.247Z,99172.84
2022-12-14T21:42:21.869Z,99194.19
2022-12-14T21:44:50.093Z,99162.88
2022-12-14T21:47:18.658Z,99109.44
2022-12-14T21:49:46.327Z,99199.53
2022-12-14T21:52:16.222Z,99201.31
2022-12-14T21:54:43.879Z,99205.81
2022-12-14T21:57:32.088Z,99157.53
2022-12-14T21:59:59.627Z,99191.88
2022-12-14T22:02:27.390Z,99198.91
2022-12-14T22:04:56.314Z,99198.91
2022-12-14T22:07:26.577Z,99176.97
2022-12-14T22:09:53.837Z,99201.69
2022-12-14T22:12:21.358Z,99205.44
2022-12-14T22:14:49.220Z,99194.13
2022-12-14T22:17:16.687Z,99200.25
2022-12-14T22:19:44.151Z,99124.69
2022-12-14T22:22:13.740Z,99209.75
2022-12-14T22:24:42.574Z,99191.72
2022-12-14T22:27:10.434Z,99205.44
2022-12-14T22:29:37.930Z,99210.75
2022-12-14T22:32:06.123Z,99209.06
2022-12-14T22:34:33.629Z,99202.88
2022-12-14T22:37:01.120Z,99202.97
2022-12-14T22:39:28.580Z,99199.69
2022-12-14T22:41:57.477Z,99204.81
2022-12-14T22:44:24.952Z,99210.13
2022-12-14T22:46:52.987Z,99204.88
2022-12-14T22:49:21.172Z,99206.75
2022-12-14T22:51:48.664Z,99211.94
2022-12-14T22:54:18.137Z,99217.19
2022-12-14T22:56:46.726Z,99143.31
2022-12-14T22:59:16.848Z,99220.81
2022-12-14T23:01:49.550Z,99219.97
2022-12-14T23:04:17.869Z,99213.88
2022-12-14T23:06:45.594Z,99222.69
2022-12-14T23:09:30.912Z,99103.41
2022-12-14T23:12:21.241Z,99073.59
2022-12-14T23:15:08.159Z,99216.56
2022-12-14T23:17:53.612Z,99215.72
2022-12-14T23:20:38.712Z,99211.41
2022-12-14T23:23:24.550Z,99214.88
2022-12-14T23:26:09.809Z,99219.50
2022-12-14T23:28:55.036Z,99223.75
2022-12-14T23:31:41.769Z,99210.41
2022-12-14T23:34:27.017Z,99236.97
2022-12-14T23:37:16.515Z,99230.97
2022-12-14T23:40:05.298Z,99243.19
2022-12-14T23:42:50.747Z,99236.22
2022-12-14T23:45:36.000Z,99232.75
2022-12-14T23:48:22.837Z,99238.06
2022-12-14T23:51:08.175Z,99239.75
2022-12-14T23:53:53.526Z,99251.13
2022-12-14T23:56:38.684Z,99233.69
2022-12-14T23:59:29.740Z,99245.09
